sensor_id;sensor_type;location;lat;lon;timestamp;P1;durP1;ratioP1;P2;durP2;ratioP2
66327;SDS011;53133;52.862;6.602;2023-01-16T00:00:49;8.73;;;3.30;;
66327;SDS011;53133;52.862;6.602;2023-01-16T00:03:15;6.18;;;3.00;;
66327;SDS011;53133;52.862;6.602;2023-01-16T00:05:41;10.43;;;3.05;;
66327;SDS011;53133;52.862;6.602;2023-01-16T00:08:07;6.22;;;2.58;;
66327;SDS011;53133;52.862;6.602;2023-01-16T00:10:33;5.40;;;2.50;;
66327;SDS011;53133;52.862;6.602;2023-01-16T00:12:59;7.05;;;2.88;;
66327;SDS011;53133;52.862;6.602;2023-01-16T00:15:25;5.22;;;2.65;;
66327;SDS011;53133;52.862;6.602;2023-01-16T00:17:50;12.13;;;6.45;;
66327;SDS011;53133;52.862;6.602;2023-01-16T00:20:16;21.05;;;12.15;;
66327;SDS011;53133;52.862;6.602;2023-01-16T00:22:42;15.15;;;7.78;;
66327;SDS011;53133;52.862;6.602;2023-01-16T00:25:08;8.05;;;3.03;;
66327;SDS011;53133;52.862;6.602;2023-01-16T00:27:34;8.13;;;3.20;;
66327;SDS011;53133;52.862;6.602;2023-01-16T00:30:00;6.78;;;3.00;;
66327;SDS011;53133;52.862;6.602;2023-01-16T00:32:25;6.35;;;3.35;;
66327;SDS011;53133;52.862;6.602;2023-01-16T00:34:51;5.57;;;2.67;;
66327;SDS011;53133;52.862;6.602;2023-01-16T00:37:16;6.63;;;2.72;;
66327;SDS011;53133;52.862;6.602;2023-01-16T00:39:42;7.75;;;2.75;;
66327;SDS011;53133;52.862;6.602;2023-01-16T00:42:08;7.50;;;3.20;;
66327;SDS011;53133;52.862;6.602;2023-01-16T00:44:33;7.90;;;2.70;;
66327;SDS011;53133;52.862;6.602;2023-01-16T00:46:59;7.45;;;2.88;;
66327;SDS011;53133;52.862;6.602;2023-01-16T00:49:25;6.20;;;2.58;;
66327;SDS011;53133;52.862;6.602;2023-01-16T00:51:50;7.28;;;2.58;;
66327;SDS011;53133;52.862;6.602;2023-01-16T00:54:19;4.60;;;2.40;;
66327;SDS011;53133;52.862;6.602;2023-01-16T00:56:45;6.78;;;2.65;;
66327;SDS011;53133;52.862;6.602;2023-01-16T00:59:10;5.45;;;2.60;;
66327;SDS011;53133;52.862;6.602;2023-01-16T01:01:36;7.53;;;2.80;;
66327;SDS011;53133;52.862;6.602;2023-01-16T01:04:02;11.93;;;3.10;;
66327;SDS011;53133;52.862;6.602;2023-01-16T01:06:28;6.57;;;2.90;;
66327;SDS011;53133;52.862;6.602;2023-01-16T01:08:54;7.07;;;2.42;;
66327;SDS011;53133;52.862;6.602;2023-01-16T01:11:20;7.88;;;2.63;;
66327;SDS011;53133;52.862;6.602;2023-01-16T01:13:46;10.10;;;2.80;;
66327;SDS011;53133;52.862;6.602;2023-01-16T01:16:12;7.20;;;2.42;;
66327;SDS011;53133;52.862;6.602;2023-01-16T01:18:38;5.25;;;2.47;;
66327;SDS011;53133;52.862;6.602;2023-01-16T01:21:04;9.70;;;2.60;;
66327;SDS011;53133;52.862;6.602;2023-01-16T01:23:30;8.20;;;2.72;;
66327;SDS011;53133;52.862;6.602;2023-01-16T01:25:55;8.75;;;2.65;;
66327;SDS011;53133;52.862;6.602;2023-01-16T01:28:29;7.65;;;2.60;;
66327;SDS011;53133;52.862;6.602;2023-01-16T01:30:55;10.50;;;2.38;;
66327;SDS011;53133;52.862;6.602;2023-01-16T01:33:20;6.72;;;2.20;;
66327;SDS011;53133;52.862;6.602;2023-01-16T01:35:46;8.52;;;2.35;;
66327;SDS011;53133;52.862;6.602;2023-01-16T01:38:11;7.95;;;2.58;;
66327;SDS011;53133;52.862;6.602;2023-01-16T01:40:37;6.55;;;2.10;;
66327;SDS011;53133;52.862;6.602;2023-01-16T01:43:03;6.47;;;2.50;;
66327;SDS011;53133;52.862;6.602;2023-01-16T01:45:37;6.43;;;2.40;;
66327;SDS011;53133;52.862;6.602;2023-01-16T01:53:26;4.28;;;2.25;;
66327;SDS011;53133;52.862;6.602;2023-01-16T01:55:56;4.82;;;2.25;;
66327;SDS011;53133;52.862;6.602;2023-01-16T01:58:25;10.55;;;2.60;;
66327;SDS011;53133;52.862;6.602;2023-01-16T02:00:54;7.43;;;2.53;;
66327;SDS011;53133;52.862;6.602;2023-01-16T02:03:28;7.00;;;2.42;;
66327;SDS011;53133;52.862;6.602;2023-01-16T02:06:08;9.93;;;2.03;;
66327;SDS011;53133;52.862;6.602;2023-01-16T02:08:40;8.73;;;2.08;;
66327;SDS011;53133;52.862;6.602;2023-01-16T02:11:13;8.52;;;1.90;;
66327;SDS011;53133;52.862;6.602;2023-01-16T02:13:56;7.65;;;2.00;;
66327;SDS011;53133;52.862;6.602;2023-01-16T02:16:23;5.15;;;2.70;;
66327;SDS011;53133;52.862;6.602;2023-01-16T02:19:09;6.13;;;2.80;;
66327;SDS011;53133;52.862;6.602;2023-01-16T02:25:23;4.80;;;2.10;;
66327;SDS011;53133;52.862;6.602;2023-01-16T02:33:15;8.05;;;2.15;;
66327;SDS011;53133;52.862;6.602;2023-01-16T02:35:56;6.43;;;2.60;;
66327;SDS011;53133;52.862;6.602;2023-01-16T02:50:19;6.60;;;2.45;;
66327;SDS011;53133;52.862;6.602;2023-01-16T02:55:45;8.27;;;2.58;;
66327;SDS011;53133;52.862;6.602;2023-01-16T02:58:17;7.80;;;2.83;;
66327;SDS011;53133;52.862;6.602;2023-01-16T03:00:51;7.05;;;2.85;;
66327;SDS011;53133;52.862;6.602;2023-01-16T03:03:29;8.27;;;2.72;;
66327;SDS011;53133;52.862;6.602;2023-01-16T03:12:21;6.68;;;2.65;;
66327;SDS011;53133;52.862;6.602;2023-01-16T03:15:02;8.75;;;3.22;;
66327;SDS011;53133;52.862;6.602;2023-01-16T03:18:03;6.68;;;3.60;;
66327;SDS011;53133;52.862;6.602;2023-01-16T03:21:00;9.73;;;3.88;;
66327;SDS011;53133;52.862;6.602;2023-01-16T03:26:33;9.30;;;3.60;;
66327;SDS011;53133;52.862;6.602;2023-01-16T03:34:42;7.22;;;3.67;;
66327;SDS011;53133;52.862;6.602;2023-01-16T03:37:32;6.80;;;3.92;;
66327;SDS011;53133;52.862;6.602;2023-01-16T03:40:06;6.35;;;3.28;;
66327;SDS011;53133;52.862;6.602;2023-01-16T03:43:00;7.63;;;3.78;;
66327;SDS011;53133;52.862;6.602;2023-01-16T03:45:32;9.13;;;4.50;;
66327;SDS011;53133;52.862;6.602;2023-01-16T03:50:35;6.22;;;4.20;;
66327;SDS011;53133;52.862;6.602;2023-01-16T03:53:04;9.98;;;4.40;;
66327;SDS011;53133;52.862;6.602;2023-01-16T03:55:41;9.95;;;4.90;;
66327;SDS011;53133;52.862;6.602;2023-01-16T03:58:13;8.68;;;4.03;;
66327;SDS011;53133;52.862;6.602;2023-01-16T04:06:32;9.48;;;4.55;;
66327;SDS011;53133;52.862;6.602;2023-01-16T04:09:08;9.48;;;5.05;;
66327;SDS011;53133;52.862;6.602;2023-01-16T04:11:41;10.30;;;4.93;;
66327;SDS011;53133;52.862;6.602;2023-01-16T04:14:09;9.07;;;5.15;;
66327;SDS011;53133;52.862;6.602;2023-01-16T04:16:36;12.68;;;5.10;;
66327;SDS011;53133;52.862;6.602;2023-01-16T04:19:04;10.63;;;5.30;;
66327;SDS011;53133;52.862;6.602;2023-01-16T04:21:31;13.85;;;6.57;;
66327;SDS011;53133;52.862;6.602;2023-01-16T04:23:57;12.35;;;6.38;;
66327;SDS011;53133;52.862;6.602;2023-01-16T04:26:27;14.00;;;7.05;;
66327;SDS011;53133;52.862;6.602;2023-01-16T04:28:53;11.63;;;7.07;;
66327;SDS011;53133;52.862;6.602;2023-01-16T04:31:21;12.80;;;6.50;;
66327;SDS011;53133;52.862;6.602;2023-01-16T04:33:47;12.90;;;7.28;;
66327;SDS011;53133;52.862;6.602;2023-01-16T04:36:13;14.55;;;8.10;;
66327;SDS011;53133;52.862;6.602;2023-01-16T04:38:38;12.30;;;7.72;;
66327;SDS011;53133;52.862;6.602;2023-01-16T04:41:04;16.38;;;8.52;;
66327;SDS011;53133;52.862;6.602;2023-01-16T04:43:30;15.05;;;8.75;;
66327;SDS011;53133;52.862;6.602;2023-01-16T04:45:58;14.50;;;8.23;;
66327;SDS011;53133;52.862;6.602;2023-01-16T04:48:24;14.32;;;8.82;;
66327;SDS011;53133;52.862;6.602;2023-01-16T04:50:49;17.50;;;9.95;;
66327;SDS011;53133;52.862;6.602;2023-01-16T04:53:15;15.75;;;9.45;;
66327;SDS011;53133;52.862;6.602;2023-01-16T04:55:41;18.00;;;9.63;;
66327;SDS011;53133;52.862;6.602;2023-01-16T04:58:07;15.90;;;9.77;;
66327;SDS011;53133;52.862;6.602;2023-01-16T05:00:32;16.75;;;10.02;;
66327;SDS011;53133;52.862;6.602;2023-01-16T05:02:58;18.30;;;10.32;;
66327;SDS011;53133;52.862;6.602;2023-01-16T05:05:24;17.10;;;9.88;;
66327;SDS011;53133;52.862;6.602;2023-01-16T05:07:49;16.80;;;9.30;;
66327;SDS011;53133;52.862;6.602;2023-01-16T05:10:35;17.80;;;9.40;;
66327;SDS011;53133;52.862;6.602;2023-01-16T05:13:01;18.15;;;10.73;;
66327;SDS011;53133;52.862;6.602;2023-01-16T05:15:27;20.00;;;10.15;;
66327;SDS011;53133;52.862;6.602;2023-01-16T05:17:52;19.17;;;10.32;;
66327;SDS011;53133;52.862;6.602;2023-01-16T05:20:19;18.30;;;10.10;;
66327;SDS011;53133;52.862;6.602;2023-01-16T05:22:45;22.50;;;10.00;;
66327;SDS011;53133;52.862;6.602;2023-01-16T05:25:10;14.95;;;9.18;;
66327;SDS011;53133;52.862;6.602;2023-01-16T05:27:36;22.60;;;10.60;;
66327;SDS011;53133;52.862;6.602;2023-01-16T05:30:01;18.55;;;10.05;;
66327;SDS011;53133;52.862;6.602;2023-01-16T05:32:27;19.25;;;8.82;;
66327;SDS011;53133;52.862;6.602;2023-01-16T05:34:53;19.42;;;9.30;;
66327;SDS011;53133;52.862;6.602;2023-01-16T05:37:19;20.67;;;9.57;;
66327;SDS011;53133;52.862;6.602;2023-01-16T05:39:45;18.65;;;8.65;;
66327;SDS011;53133;52.862;6.602;2023-01-16T05:42:11;13.13;;;8.65;;
66327;SDS011;53133;52.862;6.602;2023-01-16T05:44:49;18.48;;;8.13;;
66327;SDS011;53133;52.862;6.602;2023-01-16T05:47:16;17.02;;;8.60;;
66327;SDS011;53133;52.862;6.602;2023-01-16T05:49:41;16.30;;;9.07;;
66327;SDS011;53133;52.862;6.602;2023-01-16T05:52:07;21.15;;;8.18;;
66327;SDS011;53133;52.862;6.602;2023-01-16T05:54:32;17.48;;;7.70;;
66327;SDS011;53133;52.862;6.602;2023-01-16T05:56:58;12.80;;;8.13;;
66327;SDS011;53133;52.862;6.602;2023-01-16T05:59:23;13.77;;;8.45;;
66327;SDS011;53133;52.862;6.602;2023-01-16T06:01:49;19.63;;;7.93;;
66327;SDS011;53133;52.862;6.602;2023-01-16T06:04:15;12.95;;;7.57;;
66327;SDS011;53133;52.862;6.602;2023-01-16T06:06:42;14.32;;;7.25;;
66327;SDS011;53133;52.862;6.602;2023-01-16T06:09:08;12.52;;;7.40;;
66327;SDS011;53133;52.862;6.602;2023-01-16T06:11:34;12.60;;;6.72;;
66327;SDS011;53133;52.862;6.602;2023-01-16T06:13:59;16.15;;;6.50;;
66327;SDS011;53133;52.862;6.602;2023-01-16T06:16:30;12.52;;;7.38;;
66327;SDS011;53133;52.862;6.602;2023-01-16T06:18:56;12.05;;;6.18;;
66327;SDS011;53133;52.862;6.602;2023-01-16T06:21:21;13.70;;;6.35;;
66327;SDS011;53133;52.862;6.602;2023-01-16T06:23:47;13.43;;;6.05;;
66327;SDS011;53133;52.862;6.602;2023-01-16T06:26:12;12.65;;;6.07;;
66327;SDS011;53133;52.862;6.602;2023-01-16T06:28:38;15.30;;;5.82;;
66327;SDS011;53133;52.862;6.602;2023-01-16T06:31:07;13.63;;;5.85;;
66327;SDS011;53133;52.862;6.602;2023-01-16T06:33:33;12.25;;;5.75;;
66327;SDS011;53133;52.862;6.602;2023-01-16T06:35:59;13.30;;;5.75;;
66327;SDS011;53133;52.862;6.602;2023-01-16T06:38:28;10.52;;;5.65;;
66327;SDS011;53133;52.862;6.602;2023-01-16T06:40:53;12.15;;;5.30;;
66327;SDS011;53133;52.862;6.602;2023-01-16T06:43:24;10.73;;;6.00;;
66327;SDS011;53133;52.862;6.602;2023-01-16T06:45:51;12.35;;;5.78;;
66327;SDS011;53133;52.862;6.602;2023-01-16T06:48:20;10.77;;;5.35;;
66327;SDS011;53133;52.862;6.602;2023-01-16T06:50:46;11.48;;;5.25;;
66327;SDS011;53133;52.862;6.602;2023-01-16T06:53:12;9.90;;;4.72;;
66327;SDS011;53133;52.862;6.602;2023-01-16T06:55:38;10.02;;;4.47;;
66327;SDS011;53133;52.862;6.602;2023-01-16T06:58:05;9.93;;;5.10;;
66327;SDS011;53133;52.862;6.602;2023-01-16T07:00:30;11.57;;;4.75;;
66327;SDS011;53133;52.862;6.602;2023-01-16T07:02:56;10.07;;;4.32;;
66327;SDS011;53133;52.862;6.602;2023-01-16T07:05:23;11.63;;;4.63;;
66327;SDS011;53133;52.862;6.602;2023-01-16T07:07:49;11.38;;;4.78;;
66327;SDS011;53133;52.862;6.602;2023-01-16T07:10:15;9.02;;;4.45;;
66327;SDS011;53133;52.862;6.602;2023-01-16T07:12:42;11.32;;;5.03;;
66327;SDS011;53133;52.862;6.602;2023-01-16T07:15:08;10.75;;;4.78;;
66327;SDS011;53133;52.862;6.602;2023-01-16T07:17:53;9.70;;;4.50;;
66327;SDS011;53133;52.862;6.602;2023-01-16T07:20:37;8.30;;;4.47;;
66327;SDS011;53133;52.862;6.602;2023-01-16T07:23:23;13.30;;;4.90;;
66327;SDS011;53133;52.862;6.602;2023-01-16T07:25:52;10.03;;;4.73;;
66327;SDS011;53133;52.862;6.602;2023-01-16T07:28:19;8.07;;;4.68;;
66327;SDS011;53133;52.862;6.602;2023-01-16T07:30:45;12.30;;;4.93;;
66327;SDS011;53133;52.862;6.602;2023-01-16T07:33:12;11.17;;;5.03;;
66327;SDS011;53133;52.862;6.602;2023-01-16T07:35:38;12.10;;;5.07;;
66327;SDS011;53133;52.862;6.602;2023-01-16T07:38:03;11.43;;;4.70;;
66327;SDS011;53133;52.862;6.602;2023-01-16T07:40:29;11.30;;;5.13;;
66327;SDS011;53133;52.862;6.602;2023-01-16T07:42:55;11.73;;;5.07;;
66327;SDS011;53133;52.862;6.602;2023-01-16T07:45:20;10.73;;;4.70;;
66327;SDS011;53133;52.862;6.602;2023-01-16T07:47:49;11.40;;;4.85;;
66327;SDS011;53133;52.862;6.602;2023-01-16T07:50:15;8.75;;;4.70;;
66327;SDS011;53133;52.862;6.602;2023-01-16T07:52:42;11.63;;;5.00;;
66327;SDS011;53133;52.862;6.602;2023-01-16T07:55:11;9.37;;;4.80;;
66327;SDS011;53133;52.862;6.602;2023-01-16T07:57:37;10.65;;;5.40;;
66327;SDS011;53133;52.862;6.602;2023-01-16T08:00:04;9.07;;;5.03;;
66327;SDS011;53133;52.862;6.602;2023-01-16T08:02:35;10.07;;;4.88;;
66327;SDS011;53133;52.862;6.602;2023-01-16T08:05:01;10.82;;;5.50;;
66327;SDS011;53133;52.862;6.602;2023-01-16T08:07:27;10.43;;;5.50;;
66327;SDS011;53133;52.862;6.602;2023-01-16T08:09:55;11.38;;;5.13;;
66327;SDS011;53133;52.862;6.602;2023-01-16T08:12:21;11.30;;;4.93;;
66327;SDS011;53133;52.862;6.602;2023-01-16T08:14:46;10.68;;;5.40;;
66327;SDS011;53133;52.862;6.602;2023-01-16T08:17:15;13.27;;;5.25;;
66327;SDS011;53133;52.862;6.602;2023-01-16T08:19:40;12.27;;;5.57;;
66327;SDS011;53133;52.862;6.602;2023-01-16T08:22:06;11.55;;;5.28;;
66327;SDS011;53133;52.862;6.602;2023-01-16T08:24:32;10.40;;;4.85;;
66327;SDS011;53133;52.862;6.602;2023-01-16T08:26:57;10.98;;;5.18;;
66327;SDS011;53133;52.862;6.602;2023-01-16T08:29:23;9.90;;;4.60;;
66327;SDS011;53133;52.862;6.602;2023-01-16T08:31:50;11.73;;;4.57;;
66327;SDS011;53133;52.862;6.602;2023-01-16T08:34:16;8.80;;;5.10;;
66327;SDS011;53133;52.862;6.602;2023-01-16T08:36:41;10.27;;;4.45;;
66327;SDS011;53133;52.862;6.602;2023-01-16T08:39:10;10.45;;;4.18;;
66327;SDS011;53133;52.862;6.602;2023-01-16T08:41:37;7.67;;;4.30;;
66327;SDS011;53133;52.862;6.602;2023-01-16T08:44:21;12.40;;;4.57;;
66327;SDS011;53133;52.862;6.602;2023-01-16T08:47:16;10.43;;;4.72;;
66327;SDS011;53133;52.862;6.602;2023-01-16T08:50:04;22.15;;;13.95;;
66327;SDS011;53133;52.862;6.602;2023-01-16T08:52:48;54.70;;;28.40;;
66327;SDS011;53133;52.862;6.602;2023-01-16T08:55:14;21.13;;;12.93;;
66327;SDS011;53133;52.862;6.602;2023-01-16T08:57:40;9.20;;;5.88;;
66327;SDS011;53133;52.862;6.602;2023-01-16T09:00:06;84.83;;;49.20;;
66327;SDS011;53133;52.862;6.602;2023-01-16T09:02:32;25.10;;;15.50;;
66327;SDS011;53133;52.862;6.602;2023-01-16T09:05:01;20.93;;;14.37;;
66327;SDS011;53133;52.862;6.602;2023-01-16T09:07:26;31.57;;;23.07;;
66327;SDS011;53133;52.862;6.602;2023-01-16T09:09:53;60.25;;;49.60;;
66327;SDS011;53133;52.862;6.602;2023-01-16T09:12:19;17.48;;;14.88;;
66327;SDS011;53133;52.862;6.602;2023-01-16T09:15:04;10.85;;;7.43;;
66327;SDS011;53133;52.862;6.602;2023-01-16T09:17:30;15.35;;;12.82;;
66327;SDS011;53133;52.862;6.602;2023-01-16T09:19:55;11.52;;;8.55;;
66327;SDS011;53133;52.862;6.602;2023-01-16T09:22:21;11.63;;;8.40;;
66327;SDS011;53133;52.862;6.602;2023-01-16T09:24:47;18.77;;;12.73;;
66327;SDS011;53133;52.862;6.602;2023-01-16T09:27:13;15.38;;;10.32;;
66327;SDS011;53133;52.862;6.602;2023-01-16T09:29:40;12.15;;;8.52;;
66327;SDS011;53133;52.862;6.602;2023-01-16T09:32:06;29.15;;;21.63;;
66327;SDS011;53133;52.862;6.602;2023-01-16T09:34:36;21.27;;;14.10;;
66327;SDS011;53133;52.862;6.602;2023-01-16T09:37:03;25.03;;;15.30;;
66327;SDS011;53133;52.862;6.602;2023-01-16T09:39:30;14.15;;;7.97;;
66327;SDS011;53133;52.862;6.602;2023-01-16T09:42:00;18.10;;;12.82;;
66327;SDS011;53133;52.862;6.602;2023-01-16T09:44:51;10.60;;;6.05;;
66327;SDS011;53133;52.862;6.602;2023-01-16T09:47:20;7.47;;;4.63;;
66327;SDS011;53133;52.862;6.602;2023-01-16T09:49:52;6.57;;;3.72;;
66327;SDS011;53133;52.862;6.602;2023-01-16T09:52:23;6.05;;;4.18;;
66327;SDS011;53133;52.862;6.602;2023-01-16T09:55:22;10.93;;;9.45;;
66327;SDS011;53133;52.862;6.602;2023-01-16T09:58:31;10.02;;;6.15;;
66327;SDS011;53133;52.862;6.602;2023-01-16T10:01:00;5.20;;;3.50;;
66327;SDS011;53133;52.862;6.602;2023-01-16T10:03:26;8.85;;;4.18;;
66327;SDS011;53133;52.862;6.602;2023-01-16T10:06:04;10.02;;;3.03;;
66327;SDS011;53133;52.862;6.602;2023-01-16T10:11:50;10.95;;;7.70;;
66327;SDS011;53133;52.862;6.602;2023-01-16T10:20:16;5.47;;;2.72;;
66327;SDS011;53133;52.862;6.602;2023-01-16T10:25:34;3.72;;;2.47;;
66327;SDS011;53133;52.862;6.602;2023-01-16T10:31:05;5.43;;;3.35;;
66327;SDS011;53133;52.862;6.602;2023-01-16T10:36:12;195.60;;;94.78;;
66327;SDS011;53133;52.862;6.602;2023-01-16T10:38:43;101.90;;;46.95;;
66327;SDS011;53133;52.862;6.602;2023-01-16T10:43:59;24.50;;;13.73;;
66327;SDS011;53133;52.862;6.602;2023-01-16T10:46:45;25.45;;;16.05;;
66327;SDS011;53133;52.862;6.602;2023-01-16T10:49:30;41.30;;;25.33;;
66327;SDS011;53133;52.862;6.602;2023-01-16T10:51:57;14.77;;;10.35;;
66327;SDS011;53133;52.862;6.602;2023-01-16T10:54:25;25.60;;;19.65;;
66327;SDS011;53133;52.862;6.602;2023-01-16T10:56:51;17.60;;;12.52;;
66327;SDS011;53133;52.862;6.602;2023-01-16T10:59:16;18.98;;;16.23;;
66327;SDS011;53133;52.862;6.602;2023-01-16T11:01:43;15.85;;;13.05;;
66327;SDS011;53133;52.862;6.602;2023-01-16T11:04:11;7.82;;;5.32;;
66327;SDS011;53133;52.862;6.602;2023-01-16T11:06:37;10.93;;;9.45;;
66327;SDS011;53133;52.862;6.602;2023-01-16T11:09:14;9.60;;;7.75;;
66327;SDS011;53133;52.862;6.602;2023-01-16T11:11:45;11.80;;;7.20;;
66327;SDS011;53133;52.862;6.602;2023-01-16T11:14:34;11.05;;;8.57;;
66327;SDS011;53133;52.862;6.602;2023-01-16T11:17:31;42.92;;;27.23;;
66327;SDS011;53133;52.862;6.602;2023-01-16T11:20:32;43.33;;;29.53;;
66327;SDS011;53133;52.862;6.602;2023-01-16T11:25:40;70.85;;;45.63;;
66327;SDS011;53133;52.862;6.602;2023-01-16T11:28:17;61.43;;;42.73;;
66327;SDS011;53133;52.862;6.602;2023-01-16T11:30:52;28.67;;;19.20;;
66327;SDS011;53133;52.862;6.602;2023-01-16T11:33:27;15.55;;;12.45;;
66327;SDS011;53133;52.862;6.602;2023-01-16T11:36:00;9.50;;;8.57;;
66327;SDS011;53133;52.862;6.602;2023-01-16T11:38:28;19.05;;;15.95;;
66327;SDS011;53133;52.862;6.602;2023-01-16T11:40:58;8.57;;;4.57;;
66327;SDS011;53133;52.862;6.602;2023-01-16T11:43:26;6.35;;;5.70;;
66327;SDS011;53133;52.862;6.602;2023-01-16T11:48:53;4.60;;;3.35;;
66327;SDS011;53133;52.862;6.602;2023-01-16T11:51:24;6.93;;;5.07;;
66327;SDS011;53133;52.862;6.602;2023-01-16T11:53:53;3.75;;;3.30;;
66327;SDS011;53133;52.862;6.602;2023-01-16T11:56:39;4.85;;;3.20;;
66327;SDS011;53133;52.862;6.602;2023-01-16T11:59:32;7.30;;;5.15;;
66327;SDS011;53133;52.862;6.602;2023-01-16T12:02:24;5.72;;;3.10;;
66327;SDS011;53133;52.862;6.602;2023-01-16T12:21:52;8.93;;;5.72;;
66327;SDS011;53133;52.862;6.602;2023-01-16T12:24:49;7.35;;;4.90;;
66327;SDS011;53133;52.862;6.602;2023-01-16T12:30:19;8.85;;;7.93;;
66327;SDS011;53133;52.862;6.602;2023-01-16T12:32:57;6.93;;;5.20;;
66327;SDS011;53133;52.862;6.602;2023-01-16T12:36:00;11.13;;;9.98;;
66327;SDS011;53133;52.862;6.602;2023-01-16T12:38:44;5.55;;;3.67;;
66327;SDS011;53133;52.862;6.602;2023-01-16T12:44:46;5.55;;;3.97;;
66327;SDS011;53133;52.862;6.602;2023-01-16T12:47:21;4.93;;;3.00;;
66327;SDS011;53133;52.862;6.602;2023-01-16T12:52:52;5.28;;;3.90;;
66327;SDS011;53133;52.862;6.602;2023-01-16T12:58:14;5.30;;;2.92;;
66327;SDS011;53133;52.862;6.602;2023-01-16T13:00:45;5.22;;;3.35;;
66327;SDS011;53133;52.862;6.602;2023-01-16T13:09:33;4.90;;;3.20;;
66327;SDS011;53133;52.862;6.602;2023-01-16T13:12:07;3.38;;;2.50;;
66327;SDS011;53133;52.862;6.602;2023-01-16T13:15:16;4.57;;;3.17;;
66327;SDS011;53133;52.862;6.602;2023-01-16T13:17:49;6.20;;;3.40;;
66327;SDS011;53133;52.862;6.602;2023-01-16T13:20:21;5.80;;;2.67;;
66327;SDS011;53133;52.862;6.602;2023-01-16T13:22:52;4.45;;;3.78;;
66327;SDS011;53133;52.862;6.602;2023-01-16T13:28:14;7.20;;;2.85;;
66327;SDS011;53133;52.862;6.602;2023-01-16T13:30:43;3.63;;;2.65;;
66327;SDS011;53133;52.862;6.602;2023-01-16T13:33:12;3.95;;;2.20;;
66327;SDS011;53133;52.862;6.602;2023-01-16T13:38:42;3.95;;;2.55;;
66327;SDS011;53133;52.862;6.602;2023-01-16T13:41:35;3.40;;;2.50;;
66327;SDS011;53133;52.862;6.602;2023-01-16T13:47:04;7.93;;;2.20;;
66327;SDS011;53133;52.862;6.602;2023-01-16T13:49:33;2.63;;;1.98;;
66327;SDS011;53133;52.862;6.602;2023-01-16T13:51:59;5.35;;;2.30;;
66327;SDS011;53133;52.862;6.602;2023-01-16T13:54:31;4.13;;;2.10;;
66327;SDS011;53133;52.862;6.602;2023-01-16T13:57:02;4.75;;;2.50;;
66327;SDS011;53133;52.862;6.602;2023-01-16T14:10:38;216.77;;;85.05;;
66327;SDS011;53133;52.862;6.602;2023-01-16T14:13:14;69.97;;;31.80;;
66327;SDS011;53133;52.862;6.602;2023-01-16T14:16:01;26.05;;;13.65;;
66327;SDS011;53133;52.862;6.602;2023-01-16T14:21:48;50.10;;;25.58;;
66327;SDS011;53133;52.862;6.602;2023-01-16T14:24:38;43.40;;;22.25;;
66327;SDS011;53133;52.862;6.602;2023-01-16T14:27:20;35.55;;;18.15;;
66327;SDS011;53133;52.862;6.602;2023-01-16T14:29:54;36.90;;;20.23;;
66327;SDS011;53133;52.862;6.602;2023-01-16T14:32:23;15.55;;;9.07;;
66327;SDS011;53133;52.862;6.602;2023-01-16T14:37:43;220.15;;;93.15;;
66327;SDS011;53133;52.862;6.602;2023-01-16T14:40:19;202.45;;;123.68;;
66327;SDS011;53133;52.862;6.602;2023-01-16T14:42:48;132.50;;;56.63;;
66327;SDS011;53133;52.862;6.602;2023-01-16T14:45:37;241.18;;;103.05;;
66327;SDS011;53133;52.862;6.602;2023-01-16T14:54:14;56.97;;;29.88;;
66327;SDS011;53133;52.862;6.602;2023-01-16T14:57:25;28.55;;;16.65;;
66327;SDS011;53133;52.862;6.602;2023-01-16T14:59:57;90.05;;;46.58;;
66327;SDS011;53133;52.862;6.602;2023-01-16T15:02:52;28.80;;;16.45;;
66327;SDS011;53133;52.862;6.602;2023-01-16T15:05:31;20.23;;;12.95;;
66327;SDS011;53133;52.862;6.602;2023-01-16T15:10:47;39.17;;;23.80;;
66327;SDS011;53133;52.862;6.602;2023-01-16T15:16:16;33.55;;;22.58;;
66327;SDS011;53133;52.862;6.602;2023-01-16T15:19:18;64.82;;;37.65;;
66327;SDS011;53133;52.862;6.602;2023-01-16T15:22:14;80.60;;;49.28;;
66327;SDS011;53133;52.862;6.602;2023-01-16T15:24:42;54.28;;;31.45;;
66327;SDS011;53133;52.862;6.602;2023-01-16T15:27:19;85.65;;;50.40;;
66327;SDS011;53133;52.862;6.602;2023-01-16T15:29:51;60.10;;;42.30;;
66327;SDS011;53133;52.862;6.602;2023-01-16T15:32:31;73.13;;;38.15;;
66327;SDS011;53133;52.862;6.602;2023-01-16T15:35:40;30.25;;;17.92;;
66327;SDS011;53133;52.862;6.602;2023-01-16T15:38:08;79.97;;;44.03;;
66327;SDS011;53133;52.862;6.602;2023-01-16T15:40:34;67.53;;;36.42;;
66327;SDS011;53133;52.862;6.602;2023-01-16T15:43:00;55.25;;;31.15;;
66327;SDS011;53133;52.862;6.602;2023-01-16T15:46:10;64.03;;;35.00;;
66327;SDS011;53133;52.862;6.602;2023-01-16T15:49:11;21.60;;;17.20;;
66327;SDS011;53133;52.862;6.602;2023-01-16T15:51:52;21.92;;;19.00;;
66327;SDS011;53133;52.862;6.602;2023-01-16T15:54:19;12.23;;;10.93;;
66327;SDS011;53133;52.862;6.602;2023-01-16T15:56:45;28.05;;;20.33;;
66327;SDS011;53133;52.862;6.602;2023-01-16T15:59:20;10.23;;;8.85;;
66327;SDS011;53133;52.862;6.602;2023-01-16T16:01:46;16.08;;;14.35;;
66327;SDS011;53133;52.862;6.602;2023-01-16T16:04:11;62.95;;;37.90;;
66327;SDS011;53133;52.862;6.602;2023-01-16T16:06:37;27.90;;;22.00;;
66327;SDS011;53133;52.862;6.602;2023-01-16T16:09:06;20.20;;;14.90;;
66327;SDS011;53133;52.862;6.602;2023-01-16T16:11:41;53.60;;;35.47;;
66327;SDS011;53133;52.862;6.602;2023-01-16T16:14:32;38.47;;;26.52;;
66327;SDS011;53133;52.862;6.602;2023-01-16T16:28:22;61.58;;;44.50;;
66327;SDS011;53133;52.862;6.602;2023-01-16T16:30:56;76.60;;;50.55;;
66327;SDS011;53133;52.862;6.602;2023-01-16T16:33:27;17.02;;;12.48;;
66327;SDS011;53133;52.862;6.602;2023-01-16T16:35:54;7.18;;;5.70;;
66327;SDS011;53133;52.862;6.602;2023-01-16T16:38:23;11.52;;;10.40;;
66327;SDS011;53133;52.862;6.602;2023-01-16T16:44:23;10.20;;;9.10;;
66327;SDS011;53133;52.862;6.602;2023-01-16T16:46:50;11.35;;;9.65;;
66327;SDS011;53133;52.862;6.602;2023-01-16T16:51:41;42.67;;;27.00;;
66327;SDS011;53133;52.862;6.602;2023-01-16T16:54:17;22.75;;;16.48;;
66327;SDS011;53133;52.862;6.602;2023-01-16T16:56:44;66.90;;;33.58;;
66327;SDS011;53133;52.862;6.602;2023-01-16T16:59:16;111.95;;;49.42;;
66327;SDS011;53133;52.862;6.602;2023-01-16T17:04:11;62.53;;;31.17;;
66327;SDS011;53133;52.862;6.602;2023-01-16T17:06:41;40.95;;;24.45;;
66327;SDS011;53133;52.862;6.602;2023-01-16T17:09:09;99.70;;;61.50;;
66327;SDS011;53133;52.862;6.602;2023-01-16T17:11:43;23.67;;;17.17;;
66327;SDS011;53133;52.862;6.602;2023-01-16T17:14:09;53.50;;;44.97;;
66327;SDS011;53133;52.862;6.602;2023-01-16T17:16:35;23.20;;;16.75;;
66327;SDS011;53133;52.862;6.602;2023-01-16T17:19:03;26.02;;;21.25;;
66327;SDS011;53133;52.862;6.602;2023-01-16T17:21:41;7.10;;;5.55;;
66327;SDS011;53133;52.862;6.602;2023-01-16T17:24:08;15.60;;;13.98;;
66327;SDS011;53133;52.862;6.602;2023-01-16T17:26:39;19.55;;;13.65;;
66327;SDS011;53133;52.862;6.602;2023-01-16T17:29:06;16.27;;;12.40;;
66327;SDS011;53133;52.862;6.602;2023-01-16T17:31:32;16.25;;;12.25;;
66327;SDS011;53133;52.862;6.602;2023-01-16T17:33:59;17.70;;;10.50;;
66327;SDS011;53133;52.862;6.602;2023-01-16T17:36:25;14.15;;;10.23;;
66327;SDS011;53133;52.862;6.602;2023-01-16T17:38:52;15.52;;;12.77;;
66327;SDS011;53133;52.862;6.602;2023-01-16T17:43:49;11.98;;;10.52;;
66327;SDS011;53133;52.862;6.602;2023-01-16T17:46:36;12.15;;;8.38;;
66327;SDS011;53133;52.862;6.602;2023-01-16T17:49:01;14.27;;;9.38;;
66327;SDS011;53133;52.862;6.602;2023-01-16T17:51:27;17.80;;;11.15;;
66327;SDS011;53133;52.862;6.602;2023-01-16T17:53:53;17.85;;;11.40;;